Terminal Aerodrome Forecast
Issued by NWS

Current Version | Previous Version | Text Only | Print | Product List | Glossary Off
Versions: 1 2 3 4 5 6 7 8 9 10 11 12 13 14 15 16 17 18 19 20 21 22 23 24 25 26 27

000
FTUS41 KRNK 300337 AAA
TAFLWB
TAF AMD
KLWB 300337Z 3004/3024 VRB03KT P6SM SCT025 BKN100
     FM300600 00000KT 5SM BR SCT007 BKN080
     FM301600 35005KT P6SM VCTS OVC035CB=

USA.gov is the U.S. government's official web portal to all federal, state and local government web resources and services.